createdAt,value
2018-11-03T00:00:05.321Z,47.90
2018-11-03T00:00:44.960Z,41.00
2018-11-03T00:01:19.489Z,52.03
2018-11-03T00:01:54.461Z,47.85
2018-11-03T00:02:29.261Z,48.90
2018-11-03T00:03:04.264Z,45.60
2018-11-03T00:03:38.940Z,46.18
2018-11-03T00:04:13.660Z,50.28
2018-11-03T00:04:48.480Z,58.60
2018-11-03T00:05:23.260Z,58.50
2018-11-03T00:05:58.181Z,54.18
2018-11-03T00:06:32.900Z,56.00
2018-11-03T00:07:07.601Z,55.25
2018-11-03T00:07:42.421Z,51.70
2018-11-03T00:08:17.009Z,50.78
2018-11-03T00:08:51.861Z,54.63
2018-11-03T00:09:26.601Z,50.43
2018-11-03T00:10:01.501Z,52.30
2018-11-03T00:10:36.401Z,50.65
2018-11-03T00:11:10.960Z,46.30
2018-11-03T00:11:45.561Z,50.00
2018-11-03T00:12:20.161Z,59.15
2018-11-03T00:12:54.801Z,62.35
2018-11-03T00:13:29.481Z,61.83
2018-11-03T00:14:04.227Z,59.42
2018-11-03T00:14:38.921Z,61.40
2018-11-03T00:15:13.543Z,59.60
2018-11-03T00:15:48.201Z,58.13
2018-11-03T00:16:22.821Z,58.30
2018-11-03T00:16:57.401Z,53.02
2018-11-03T00:17:32.181Z,56.92
2018-11-03T00:18:07.201Z,58.78
2018-11-03T00:18:41.922Z,64.62
2018-11-03T00:19:16.580Z,63.58
2018-11-03T00:19:51.241Z,62.10
2018-11-03T00:20:25.941Z,68.30
2018-11-03T00:21:00.541Z,66.50
2018-11-03T00:21:35.101Z,61.45
2018-11-03T00:22:09.781Z,62.83
2018-11-03T00:22:44.401Z,63.58
2018-11-03T00:23:19.100Z,61.73
2018-11-03T00:23:53.808Z,64.25
2018-11-03T00:24:28.445Z,66.07
2018-11-03T00:25:03.041Z,62.65
2018-11-03T00:25:37.961Z,60.78
2018-11-03T00:26:12.461Z,60.58
2018-11-03T00:26:47.140Z,62.38
2018-11-03T00:27:21.681Z,69.60
2018-11-03T00:27:56.201Z,80.32
2018-11-03T00:28:30.734Z,77.87
2018-11-03T00:29:05.721Z,88.45
2018-11-03T00:29:40.240Z,80.95
2018-11-03T00:30:14.841Z,85.97
2018-11-03T00:30:49.321Z,86.37
2018-11-03T00:31:23.981Z,82.12
2018-11-03T00:31:58.547Z,86.72
2018-11-03T00:32:33.181Z,88.80
2018-11-03T00:33:07.741Z,90.35
2018-11-03T00:33:42.461Z,88.82
2018-11-03T00:34:17.042Z,88.45
2018-11-03T00:34:51.761Z,88.10
2018-11-03T00:35:26.300Z,81.75
2018-11-03T00:36:00.902Z,85.28
2018-11-03T00:36:35.421Z,82.15
2018-11-03T00:37:10.081Z,84.28
2018-11-03T00:37:44.521Z,76.20
2018-11-03T00:38:19.258Z,77.87
2018-11-03T00:38:53.780Z,80.07
2018-11-03T00:39:28.643Z,71.57
2018-11-03T00:40:03.141Z,78.50
2018-11-03T00:40:37.886Z,78.57
2018-11-03T00:41:12.321Z,79.15
2018-11-03T00:41:46.965Z,80.35
2018-11-03T00:42:21.600Z,81.05
2018-11-03T00:42:56.289Z,76.87
2018-11-03T00:43:30.801Z,71.17
2018-11-03T00:44:05.541Z,75.45
2018-11-03T00:44:40.311Z,76.15
2018-11-03T00:45:15.161Z,76.60
2018-11-03T00:45:49.763Z,74.22
2018-11-03T00:46:24.282Z,67.12
2018-11-03T00:46:58.981Z,71.05
2018-11-03T00:47:33.420Z,67.42
2018-11-03T00:48:08.097Z,66.87
2018-11-03T00:48:42.921Z,71.80
2018-11-03T00:49:17.621Z,65.28
2018-11-03T00:49:52.261Z,62.33
2018-11-03T00:50:26.861Z,64.58
2018-11-03T00:51:01.421Z,66.05
2018-11-03T00:51:36.084Z,62.90
2018-11-03T00:52:10.641Z,64.47
2018-11-03T00:52:45.601Z,62.33
2018-11-03T00:53:20.201Z,62.98
2018-11-03T00:53:54.826Z,61.88
2018-11-03T00:54:29.401Z,65.57
2018-11-03T00:55:04.281Z,68.70
2018-11-03T00:55:38.841Z,63.55
2018-11-03T00:56:13.481Z,64.58
2018-11-03T00:56:47.941Z,71.35
2018-11-03T00:57:22.601Z,66.82
2018-11-03T00:57:57.141Z,65.65
2018-11-03T00:58:31.843Z,69.42
2018-11-03T00:59:06.422Z,73.78
2018-11-03T00:59:41.040Z,69.53
2018-11-03T01:00:17.064Z,69.17
2018-11-03T01:00:51.701Z,68.85
2018-11-03T01:01:26.241Z,70.42
2018-11-03T01:02:00.940Z,66.67
2018-11-03T01:02:35.581Z,81.10
2018-11-03T01:03:10.241Z,84.77
2018-11-03T01:03:44.761Z,82.78
2018-11-03T01:04:19.361Z,66.42
2018-11-03T01:04:54.001Z,86.20
2018-11-03T01:05:28.682Z,69.40
2018-11-03T01:06:03.181Z,79.72
2018-11-03T01:06:37.621Z,63.38
2018-11-03T01:07:12.344Z,69.77
2018-11-03T01:07:47.360Z,59.08
2018-11-03T01:08:21.920Z,61.77
2018-11-03T01:08:56.661Z,55.12
2018-11-03T01:09:31.209Z,60.73
2018-11-03T01:15:11.201Z,61.73
2018-11-03T01:15:45.763Z,60.25
2018-11-03T01:16:20.401Z,58.17
2018-11-03T01:16:54.961Z,60.95
2018-11-03T01:17:29.341Z,57.88
2018-11-03T01:18:03.921Z,57.27
2018-11-03T01:18:38.601Z,60.52
2018-11-03T01:19:13.302Z,59.38
2018-11-03T01:19:47.861Z,54.08
2018-11-03T01:20:22.503Z,59.77
2018-11-03T01:20:57.161Z,64.95
2018-11-03T01:21:31.681Z,61.80
2018-11-03T01:22:06.404Z,66.77
2018-11-03T01:22:47.444Z,63.17
2018-11-03T01:23:22.009Z,65.30
2018-11-03T01:23:56.781Z,66.97
2018-11-03T01:24:31.428Z,64.53
2018-11-03T01:25:06.201Z,68.67
2018-11-03T01:25:40.821Z,64.30
2018-11-03T01:26:15.561Z,71.72
2018-11-03T01:26:50.001Z,67.90
2018-11-03T01:27:24.664Z,70.28
2018-11-03T01:27:59.201Z,62.00
2018-11-03T01:28:33.861Z,68.65
2018-11-03T01:29:08.280Z,68.42
2018-11-03T01:29:43.001Z,65.15
2018-11-03T01:30:18.021Z,73.85
2018-11-03T01:30:52.501Z,65.10
2018-11-03T01:31:27.004Z,72.95
2018-11-03T01:32:01.621Z,66.05
2018-11-03T01:32:36.343Z,71.90
2018-11-03T01:33:10.961Z,61.50
2018-11-03T01:33:45.502Z,60.90
2018-11-03T01:34:20.161Z,63.42
2018-11-03T01:34:54.701Z,66.70
2018-11-03T01:35:29.421Z,71.10
2018-11-03T01:36:03.985Z,78.37
2018-11-03T01:36:38.641Z,73.25
2018-11-03T01:37:13.184Z,68.25
2018-11-03T01:37:47.843Z,70.30
2018-11-03T01:38:22.383Z,69.22
2018-11-03T01:38:57.060Z,67.72
2018-11-03T01:39:31.701Z,60.52
2018-11-03T01:40:06.442Z,65.83
2018-11-03T01:40:41.020Z,63.85
2018-11-03T01:41:15.780Z,63.35
2018-11-03T01:41:50.240Z,61.20
2018-11-03T01:42:24.941Z,66.80
2018-11-03T01:42:59.361Z,66.87
2018-11-03T01:43:34.000Z,75.80
2018-11-03T01:44:08.761Z,84.32
2018-11-03T01:44:43.380Z,86.72
2018-11-03T01:45:17.960Z,79.90
2018-11-03T01:45:52.601Z,69.92
2018-11-03T01:46:27.201Z,66.53
2018-11-03T01:47:01.701Z,68.80
2018-11-03T01:47:36.549Z,60.00
2018-11-03T01:48:11.381Z,71.22
2018-11-03T01:48:46.023Z,71.57
2018-11-03T01:49:20.701Z,52.78
2018-11-03T01:49:55.100Z,54.73
2018-11-03T01:50:29.737Z,59.65
2018-11-03T01:51:04.440Z,65.37
2018-11-03T01:51:39.201Z,63.13
2018-11-03T01:52:13.801Z,71.70
2018-11-03T01:52:48.461Z,73.90
2018-11-03T01:53:23.041Z,62.65
2018-11-03T01:53:57.740Z,58.35
2018-11-03T01:54:32.120Z,56.92
2018-11-03T01:55:06.901Z,51.37
2018-11-03T01:55:41.340Z,54.27
2018-11-03T01:56:16.041Z,54.35
2018-11-03T01:56:50.641Z,60.75
2018-11-03T01:57:25.281Z,66.07
2018-11-03T01:57:59.801Z,58.87
2018-11-03T01:58:34.461Z,59.30
2018-11-03T01:59:09.082Z,59.20
2018-11-03T01:59:43.684Z,56.58
2018-11-03T02:00:18.221Z,63.48
2018-11-03T02:00:52.901Z,64.85
2018-11-03T02:01:27.441Z,58.23
2018-11-03T02:02:02.122Z,58.83
2018-11-03T02:02:36.661Z,67.97
2018-11-03T02:03:11.361Z,67.95
2018-11-03T02:03:45.901Z,70.50
2018-11-03T02:04:20.601Z,70.03
2018-11-03T02:04:55.141Z,67.72
2018-11-03T02:05:29.801Z,72.60
2018-11-03T02:06:04.241Z,71.02
2018-11-03T02:06:38.961Z,64.50
2018-11-03T02:07:13.682Z,62.40
2018-11-03T02:07:48.205Z,66.75
2018-11-03T02:08:22.881Z,74.75
2018-11-03T02:08:57.509Z,62.17
2018-11-03T02:09:32.120Z,72.95
2018-11-03T02:10:07.681Z,65.35
2018-11-03T02:10:42.241Z,66.92
2018-11-03T02:11:16.842Z,55.17
2018-11-03T02:11:51.462Z,56.73
2018-11-03T02:12:26.065Z,56.48
2018-11-03T02:13:00.681Z,54.33
2018-11-03T02:13:35.202Z,56.77
2018-11-03T02:14:09.921Z,53.45
2018-11-03T02:14:44.442Z,62.67
2018-11-03T02:15:19.121Z,63.60
2018-11-03T02:15:53.681Z,69.40
2018-11-03T02:16:28.361Z,68.25
2018-11-03T02:17:02.901Z,64.95
2018-11-03T02:17:37.661Z,66.10
2018-11-03T02:18:12.101Z,63.23
2018-11-03T02:18:46.782Z,68.70
2018-11-03T02:19:21.221Z,65.95
2018-11-03T02:19:55.907Z,65.92
2018-11-03T02:20:30.561Z,68.17
2018-11-03T02:21:05.324Z,64.92
2018-11-03T02:21:39.861Z,70.45
2018-11-03T02:22:14.442Z,59.90
2018-11-03T02:22:49.061Z,64.40
2018-11-03T02:23:23.462Z,59.63
2018-11-03T02:23:58.381Z,66.20
2018-11-03T02:24:32.801Z,69.00
2018-11-03T02:25:07.621Z,57.83
2018-11-03T02:25:42.301Z,62.48
2018-11-03T02:26:16.841Z,51.63
2018-11-03T02:26:51.405Z,53.95
2018-11-03T02:27:26.089Z,50.90
2018-11-03T02:28:00.642Z,50.08
2018-11-03T02:28:35.161Z,54.70
2018-11-03T02:29:10.082Z,55.05
2018-11-03T02:29:44.721Z,56.23
2018-11-03T02:30:19.342Z,53.58
2018-11-03T02:30:54.022Z,60.52
2018-11-03T02:31:28.561Z,55.95
2018-11-03T02:32:03.264Z,50.58
2018-11-03T02:32:37.764Z,51.53
2018-11-03T02:33:12.312Z,51.83
2018-11-03T02:33:46.902Z,51.55
2018-11-03T02:34:21.728Z,60.63
2018-11-03T02:34:56.261Z,68.15
2018-11-03T02:35:30.961Z,53.02
2018-11-03T02:36:05.481Z,56.53
2018-11-03T02:36:40.141Z,52.98
2018-11-03T02:37:14.881Z,57.00
2018-11-03T02:37:49.561Z,70.87
2018-11-03T02:38:24.221Z,82.08
2018-11-03T02:38:58.921Z,73.20
2018-11-03T02:39:33.521Z,76.00
2018-11-03T02:40:09.881Z,69.72
2018-11-03T02:40:44.328Z,68.47
2018-11-03T02:41:18.982Z,63.58
2018-11-03T02:41:53.561Z,59.40
2018-11-03T02:42:28.201Z,52.20
2018-11-03T02:43:02.721Z,56.80
2018-11-03T02:43:37.341Z,60.95
2018-11-03T02:44:12.021Z,60.35
2018-11-03T02:44:46.720Z,60.03
2018-11-03T02:45:21.282Z,58.83
2018-11-03T02:45:55.981Z,56.48
2018-11-03T02:46:30.522Z,54.10
2018-11-03T02:47:05.100Z,60.67
2018-11-03T02:47:40.001Z,55.73
2018-11-03T02:48:14.549Z,59.90
2018-11-03T02:48:48.981Z,55.70
2018-11-03T02:49:23.641Z,58.23
2018-11-03T02:49:58.242Z,66.45
2018-11-03T02:50:32.883Z,65.32
2018-11-03T02:51:07.521Z,67.62
2018-11-03T02:51:42.181Z,60.95
2018-11-03T02:52:16.845Z,57.53
2018-11-03T02:52:51.441Z,63.75
2018-11-03T02:53:25.942Z,61.83
2018-11-03T02:54:00.528Z,58.98
2018-11-03T02:54:35.064Z,58.78
2018-11-03T02:55:09.601Z,63.02
2018-11-03T02:55:44.181Z,59.18
2018-11-03T02:56:18.861Z,56.68
2018-11-03T02:56:53.402Z,61.18
2018-11-03T02:57:27.984Z,67.37
2018-11-03T02:58:03.043Z,63.80
2018-11-03T02:58:38.161Z,58.28
2018-11-03T02:59:13.162Z,63.30
2018-11-03T02:59:47.943Z,61.35
2018-11-03T03:00:22.928Z,60.80
2018-11-03T03:00:57.621Z,60.70
2018-11-03T03:01:32.700Z,61.83
2018-11-03T03:02:07.721Z,53.63
2018-11-03T03:02:42.381Z,60.30
2018-11-03T03:03:17.264Z,63.20
2018-11-03T03:03:52.001Z,61.50
2018-11-03T03:04:26.787Z,53.58
2018-11-03T03:05:01.242Z,54.75
2018-11-03T03:05:36.221Z,59.53
2018-11-03T03:06:10.841Z,60.98
2018-11-03T03:06:45.601Z,66.70
2018-11-03T03:07:20.660Z,59.80
2018-11-03T03:07:55.411Z,57.33
2018-11-03T03:08:30.284Z,59.98
2018-11-03T03:09:05.301Z,60.63
2018-11-03T03:09:39.881Z,67.45
2018-11-03T03:10:14.944Z,68.35
2018-11-03T03:10:49.981Z,70.32
2018-11-03T03:11:24.561Z,70.22
2018-11-03T03:11:59.322Z,73.78
2018-11-03T03:12:34.249Z,70.37
2018-11-03T03:13:09.361Z,79.05
2018-11-03T03:13:44.220Z,78.42
2018-11-03T03:14:18.801Z,65.17
2018-11-03T03:14:53.400Z,66.62
2018-11-03T03:15:28.840Z,62.00
2018-11-03T03:16:03.741Z,60.55
2018-11-03T03:16:38.481Z,54.88
2018-11-03T03:17:13.361Z,56.85
2018-11-03T03:17:48.221Z,53.65
2018-11-03T03:18:22.942Z,51.75
2018-11-03T03:18:57.861Z,62.50
2018-11-03T03:19:32.640Z,56.20
2018-11-03T03:20:09.041Z,58.23
2018-11-03T03:20:43.701Z,56.55
2018-11-03T03:21:18.781Z,58.02
2018-11-03T03:21:53.663Z,55.83
2018-11-03T03:22:28.700Z,54.88
2018-11-03T03:23:03.421Z,56.42
2018-11-03T03:23:38.061Z,56.53
2018-11-03T03:24:12.801Z,60.40
2018-11-03T03:24:47.401Z,55.67
2018-11-03T03:25:21.941Z,60.50
2018-11-03T03:25:56.641Z,58.33
2018-11-03T03:26:31.204Z,61.23
2018-11-03T03:27:06.120Z,65.15
2018-11-03T03:27:40.874Z,62.85
2018-11-03T03:28:15.643Z,63.60
2018-11-03T03:28:50.476Z,60.60
2018-11-03T03:29:25.252Z,53.83
2018-11-03T03:29:59.921Z,52.62
2018-11-03T03:30:34.521Z,55.28
2018-11-03T03:31:09.169Z,61.02
2018-11-03T03:31:50.641Z,63.75
2018-11-03T03:32:25.341Z,56.37
2018-11-03T03:32:59.961Z,59.08
2018-11-03T03:33:34.900Z,61.15
2018-11-03T03:34:09.761Z,63.87
2018-11-03T03:34:44.281Z,63.05
2018-11-03T03:35:19.081Z,61.33
2018-11-03T03:35:53.741Z,58.52
2018-11-03T03:36:28.381Z,60.75
2018-11-03T03:37:03.161Z,49.83
2018-11-03T03:37:38.001Z,49.25
2018-11-03T03:38:12.725Z,58.35
2018-11-03T03:38:47.361Z,62.53
2018-11-03T03:39:21.941Z,70.28
2018-11-03T03:39:56.831Z,74.07
2018-11-03T03:40:31.661Z,81.25
2018-11-03T03:41:06.521Z,75.70
2018-11-03T03:41:41.449Z,69.50
2018-11-03T03:42:16.281Z,74.90
2018-11-03T03:42:50.912Z,81.25
2018-11-03T03:43:25.661Z,73.75
2018-11-03T03:44:00.189Z,74.92
2018-11-03T03:44:34.761Z,67.97
2018-11-03T03:45:10.181Z,61.45
2018-11-03T03:45:44.760Z,65.35
2018-11-03T03:46:19.520Z,73.37
2018-11-03T03:46:54.161Z,62.15
2018-11-03T03:47:28.920Z,59.58
2018-11-03T03:48:03.641Z,64.00
2018-11-03T03:48:38.340Z,66.95
2018-11-03T03:49:13.481Z,58.23
2018-11-03T03:49:48.221Z,55.65
2018-11-03T03:50:23.130Z,74.35
2018-11-03T03:50:57.741Z,80.12
2018-11-03T03:51:32.464Z,69.35
2018-11-03T03:52:07.021Z,70.37
2018-11-03T03:52:41.752Z,57.35
2018-11-03T03:53:16.411Z,56.90
2018-11-03T03:53:51.021Z,46.55
2018-11-03T03:54:25.709Z,59.42
2018-11-03T03:55:00.265Z,51.20
2018-11-03T03:55:34.920Z,72.22
2018-11-03T03:56:09.463Z,71.75
2018-11-03T03:56:44.003Z,62.38
2018-11-03T03:57:19.001Z,64.53
2018-11-03T03:57:53.681Z,63.23
2018-11-03T03:58:28.200Z,58.92
2018-11-03T03:59:03.409Z,54.42
2018-11-03T03:59:38.021Z,54.33
2018-11-03T04:00:13.161Z,49.40
2018-11-03T04:00:47.761Z,53.98
2018-11-03T04:01:22.248Z,50.88
2018-11-03T04:01:56.700Z,52.20
2018-11-03T04:02:31.339Z,56.77
2018-11-03T04:03:06.109Z,60.30
2018-11-03T04:03:40.801Z,58.20
2018-11-03T04:04:15.421Z,57.83
2018-11-03T04:04:49.941Z,55.17
2018-11-03T04:05:24.640Z,60.03
2018-11-03T04:05:59.181Z,62.50
2018-11-03T04:06:33.865Z,65.45
2018-11-03T04:07:08.200Z,70.12
2018-11-03T04:07:42.882Z,59.70
2018-11-03T04:08:17.522Z,69.37
2018-11-03T04:08:52.182Z,63.02
2018-11-03T04:09:26.762Z,62.00
2018-11-03T04:10:01.443Z,63.30
2018-11-03T04:10:35.981Z,60.25
2018-11-03T04:11:10.662Z,58.73
2018-11-03T04:11:45.181Z,63.73
2018-11-03T04:12:20.021Z,59.98
2018-11-03T04:12:54.421Z,61.83
2018-11-03T04:13:29.205Z,62.33
2018-11-03T04:14:03.849Z,63.83
2018-11-03T04:14:38.441Z,59.45
2018-11-03T04:15:13.001Z,61.13
2018-11-03T04:15:47.641Z,62.50
2018-11-03T04:16:22.210Z,58.42
2018-11-03T04:16:56.782Z,58.90
2018-11-03T04:17:31.441Z,60.67
2018-11-03T04:18:06.135Z,60.30
2018-11-03T04:18:40.801Z,61.60
2018-11-03T04:19:15.421Z,60.10
2018-11-03T04:19:49.841Z,69.53
2018-11-03T04:20:24.541Z,72.92
2018-11-03T04:20:59.021Z,61.80
2018-11-03T04:21:33.521Z,68.47
2018-11-03T04:22:08.161Z,71.33
2018-11-03T04:22:42.703Z,60.50
2018-11-03T04:23:17.281Z,61.55
2018-11-03T04:23:51.929Z,64.53
2018-11-03T04:24:26.622Z,60.38
2018-11-03T04:25:01.148Z,58.52
2018-11-03T04:25:35.881Z,60.95
2018-11-03T04:26:10.512Z,60.38
2018-11-03T04:26:45.181Z,58.25
2018-11-03T04:27:19.821Z,56.42
2018-11-03T04:27:54.522Z,57.90
2018-11-03T04:29:32.481Z,58.73
2018-11-03T04:30:09.461Z,54.20
2018-11-03T04:30:44.161Z,55.40
2018-11-03T04:31:18.801Z,60.95
2018-11-03T04:31:53.421Z,67.35
2018-11-03T04:32:27.981Z,63.17
2018-11-03T04:33:02.601Z,60.25
2018-11-03T04:33:37.062Z,60.98
2018-11-03T04:34:11.741Z,69.40
2018-11-03T04:34:46.441Z,64.22
2018-11-03T04:35:21.088Z,62.03
2018-11-03T04:35:55.659Z,58.60
2018-11-03T04:36:30.322Z,57.85
2018-11-03T04:37:04.810Z,80.10
2018-11-03T04:37:39.717Z,74.50
2018-11-03T04:38:14.432Z,72.95
2018-11-03T04:38:49.205Z,64.62
2018-11-03T04:39:23.872Z,64.90
2018-11-03T04:39:58.572Z,64.55
2018-11-03T04:40:33.291Z,77.17
2018-11-03T04:41:08.012Z,71.55
2018-11-03T04:41:42.696Z,75.95
2018-11-03T04:42:17.432Z,92.20
2018-11-03T04:42:52.172Z,71.65
2018-11-03T04:43:26.872Z,72.58
2018-11-03T04:44:01.521Z,78.25
2018-11-03T04:44:36.192Z,69.35
2018-11-03T04:45:11.714Z,65.25
2018-11-03T04:45:46.312Z,66.45
2018-11-03T04:46:20.972Z,73.62
2018-11-03T04:46:55.532Z,65.67
2018-11-03T04:47:30.272Z,62.55
2018-11-03T04:48:04.813Z,79.15
2018-11-03T04:48:39.493Z,65.10
2018-11-03T04:49:14.132Z,65.47
2018-11-03T04:49:48.812Z,65.90
2018-11-03T04:50:23.514Z,58.80
2018-11-03T04:50:58.252Z,60.45
2018-11-03T04:51:34.412Z,64.10
2018-11-03T04:52:09.280Z,63.90
2018-11-03T04:52:43.952Z,63.55
2018-11-03T04:53:18.652Z,68.37
2018-11-03T04:53:53.452Z,66.28
2018-11-03T04:54:28.058Z,72.30
2018-11-03T04:55:02.921Z,87.65
2018-11-03T04:55:37.852Z,67.97
2018-11-03T04:56:12.747Z,73.40
2018-11-03T04:56:47.462Z,76.70
2018-11-03T04:57:22.152Z,65.70
2018-11-03T04:57:56.792Z,86.47
2018-11-03T04:58:31.707Z,69.47
2018-11-03T04:59:06.673Z,65.97
2018-11-03T04:59:41.451Z,66.10
2018-11-03T05:00:16.160Z,67.82
2018-11-03T05:00:50.952Z,66.90
2018-11-03T05:01:25.672Z,68.37
2018-11-03T05:02:00.453Z,73.83
2018-11-03T05:02:35.072Z,93.22
2018-11-03T05:03:09.872Z,87.53
2018-11-03T05:03:44.672Z,77.87
2018-11-03T05:04:19.432Z,75.03
2018-11-03T05:04:54.173Z,72.40
2018-11-03T05:05:29.149Z,71.02
2018-11-03T05:06:03.752Z,72.55
2018-11-03T05:06:38.572Z,81.67
2018-11-03T05:07:13.452Z,85.53
2018-11-03T05:07:48.072Z,61.92
2018-11-03T05:08:23.091Z,69.90
2018-11-03T05:08:58.092Z,70.55
2018-11-03T05:09:33.022Z,72.27
2018-11-03T05:10:08.470Z,69.67
2018-11-03T05:10:43.032Z,77.20
2018-11-03T05:11:20.892Z,75.90
2018-11-03T05:11:55.760Z,106.07
2018-11-03T05:12:30.812Z,116.05
2018-11-03T05:13:05.533Z,100.55
2018-11-03T05:13:40.420Z,86.60
2018-11-03T05:14:15.112Z,60.15
2018-11-03T05:14:49.772Z,62.20
2018-11-03T05:16:27.672Z,67.97
2018-11-03T05:17:02.452Z,59.27
2018-11-03T05:17:37.372Z,74.32
2018-11-03T05:18:12.092Z,75.60
2018-11-03T05:18:46.671Z,68.12
2018-11-03T05:19:21.373Z,58.17
2018-11-03T05:19:56.052Z,60.90
2018-11-03T05:20:30.713Z,66.10
2018-11-03T05:21:05.514Z,71.70
2018-11-03T05:21:40.352Z,101.87
2018-11-03T05:22:14.971Z,84.10
2018-11-03T05:22:49.691Z,101.15
2018-11-03T05:23:24.431Z,68.50
2018-11-03T05:23:59.132Z,65.00
2018-11-03T05:24:34.013Z,63.20
2018-11-03T05:25:08.902Z,64.55
2018-11-03T05:25:43.636Z,72.70
2018-11-03T05:26:18.455Z,73.70
2018-11-03T05:26:53.252Z,77.25
2018-11-03T05:27:27.992Z,67.20
2018-11-03T05:28:02.673Z,70.70
2018-11-03T05:28:37.374Z,72.92
2018-11-03T05:29:12.132Z,65.75
2018-11-03T05:29:46.760Z,68.15
2018-11-03T05:30:21.488Z,69.22
2018-11-03T05:30:56.137Z,75.15
2018-11-03T05:31:30.812Z,71.95
2018-11-03T05:32:05.612Z,68.10
2018-11-03T05:32:40.209Z,71.70
2018-11-03T05:33:14.896Z,68.55
2018-11-03T05:33:49.612Z,70.55
2018-11-03T05:34:24.192Z,70.40
2018-11-03T05:34:58.840Z,69.10
2018-11-03T05:35:33.432Z,70.45
2018-11-03T05:36:08.092Z,74.75
2018-11-03T05:36:48.532Z,71.53
2018-11-03T05:37:23.731Z,74.65
2018-11-03T05:37:58.471Z,75.08
2018-11-03T05:38:33.112Z,77.27
2018-11-03T05:39:10.733Z,75.22
2018-11-03T05:39:45.651Z,78.57
2018-11-03T05:40:20.292Z,85.75
2018-11-03T05:40:55.112Z,79.65
2018-11-03T05:41:29.791Z,82.12
2018-11-03T05:42:04.532Z,80.42
2018-11-03T05:42:39.540Z,83.00
2018-11-03T05:43:14.231Z,76.62
2018-11-03T05:43:48.852Z,73.15
2018-11-03T05:44:23.643Z,74.62
2018-11-03T05:44:58.435Z,77.55
2018-11-03T05:45:33.353Z,75.45
2018-11-03T05:46:08.052Z,76.87
2018-11-03T05:46:43.003Z,76.42
2018-11-03T05:47:17.632Z,69.25
2018-11-03T05:47:52.272Z,70.45
2018-11-03T05:48:26.960Z,71.45
2018-11-03T05:49:01.860Z,75.08
2018-11-03T05:49:36.513Z,76.62
2018-11-03T05:50:11.872Z,69.62
2018-11-03T05:50:46.561Z,72.08
2018-11-03T05:51:21.432Z,72.65
2018-11-03T05:51:56.160Z,68.07
2018-11-03T05:52:30.816Z,68.75
2018-11-03T05:53:05.512Z,68.07
2018-11-03T05:53:40.332Z,67.70
2018-11-03T05:54:15.032Z,64.00
2018-11-03T05:54:49.832Z,66.67
2018-11-03T05:55:24.592Z,66.53
2018-11-03T05:55:59.342Z,66.70
2018-11-03T05:56:34.061Z,63.60
2018-11-03T05:57:09.035Z,66.30
2018-11-03T05:57:43.683Z,63.30
2018-11-03T05:58:18.432Z,65.97
2018-11-03T05:58:53.371Z,65.80
2018-11-03T05:59:27.952Z,69.97
2018-11-03T06:00:02.574Z,68.50
2018-11-03T06:00:37.314Z,70.35
2018-11-03T06:01:12.112Z,72.55
2018-11-03T06:01:46.827Z,71.17
2018-11-03T06:02:21.532Z,72.00
2018-11-03T06:02:56.972Z,74.58
2018-11-03T06:03:31.932Z,70.67
2018-11-03T06:04:06.775Z,63.92
2018-11-03T06:04:41.412Z,66.80
2018-11-03T06:05:16.292Z,68.45
2018-11-03T06:05:51.192Z,69.25
2018-11-03T06:06:26.112Z,66.45
2018-11-03T06:07:01.154Z,65.92
2018-11-03T06:07:35.812Z,60.45
2018-11-03T06:08:10.520Z,65.92
2018-11-03T06:08:45.403Z,64.35
2018-11-03T06:09:20.160Z,60.28
2018-11-03T06:09:54.762Z,61.58
2018-11-03T06:10:29.340Z,63.25
2018-11-03T06:11:03.941Z,68.50
2018-11-03T06:11:38.581Z,64.92
2018-11-03T06:12:13.140Z,67.92
2018-11-03T06:12:47.821Z,66.92
2018-11-03T06:13:22.442Z,69.60
2018-11-03T06:13:57.121Z,67.37
2018-11-03T06:14:31.781Z,66.28
2018-11-03T06:15:06.482Z,54.75
2018-11-03T06:15:41.239Z,62.00
2018-11-03T06:16:15.946Z,65.78
2018-11-03T06:16:50.561Z,67.27
2018-11-03T06:17:25.223Z,60.23
2018-11-03T06:17:59.923Z,64.17
2018-11-03T06:18:34.441Z,63.20
2018-11-03T06:19:09.142Z,60.67
2018-11-03T06:19:43.560Z,67.08
2018-11-03T06:20:18.380Z,62.48
2018-11-03T06:20:53.040Z,56.98
2018-11-03T06:21:27.762Z,58.98
2018-11-03T06:22:02.361Z,59.38
2018-11-03T06:22:36.969Z,63.58
2018-11-03T06:23:11.597Z,61.98
2018-11-03T06:23:46.261Z,67.50
2018-11-03T06:24:20.861Z,71.15
2018-11-03T06:24:55.661Z,62.10
2018-11-03T06:25:30.440Z,63.40
2018-11-03T06:26:05.040Z,64.00
2018-11-03T06:26:40.003Z,62.90
2018-11-03T06:27:14.569Z,76.37
2018-11-03T06:27:49.057Z,70.35
2018-11-03T06:28:23.702Z,58.58
2018-11-03T06:28:58.241Z,65.40
2018-11-03T06:29:32.780Z,60.80
2018-11-03T06:30:09.103Z,58.63
2018-11-03T06:30:43.740Z,56.95
2018-11-03T06:31:18.681Z,56.98
2018-11-03T06:31:53.400Z,62.60
2018-11-03T06:32:27.988Z,57.03
2018-11-03T06:33:02.680Z,57.55
2018-11-03T06:33:37.241Z,57.65
2018-11-03T06:34:11.949Z,59.83
2018-11-03T06:34:46.543Z,56.13
2018-11-03T06:35:21.309Z,57.50
2018-11-03T06:35:55.941Z,57.15
2018-11-03T06:36:30.628Z,57.73
2018-11-03T06:37:05.464Z,57.35
2018-11-03T06:37:40.080Z,55.28
2018-11-03T06:38:14.702Z,57.13
2018-11-03T06:38:49.360Z,55.08
2018-11-03T06:39:23.880Z,50.50
2018-11-03T06:39:58.541Z,52.23
2018-11-03T06:40:33.180Z,55.25
2018-11-03T06:41:07.783Z,54.53
2018-11-03T06:41:42.420Z,51.92
2018-11-03T06:42:17.185Z,51.95
2018-11-03T06:42:51.880Z,51.68
2018-11-03T06:43:26.457Z,52.58
2018-11-03T06:44:01.260Z,56.02
2018-11-03T06:44:35.921Z,53.70
2018-11-03T06:45:11.020Z,49.88
2018-11-03T06:45:45.561Z,52.15
2018-11-03T06:46:20.663Z,54.93
2018-11-03T06:46:55.809Z,55.40
2018-11-03T06:47:30.710Z,51.90
2018-11-03T06:48:05.903Z,52.20
2018-11-03T06:48:40.640Z,52.03
2018-11-03T06:49:20.402Z,49.05
2018-11-03T06:49:55.598Z,54.33
2018-11-03T06:50:30.520Z,49.53
2018-11-03T06:51:05.281Z,48.98
2018-11-03T06:51:39.868Z,54.45
2018-11-03T06:52:14.583Z,56.85
2018-11-03T06:52:49.200Z,54.48
2018-11-03T06:53:23.742Z,52.98
2018-11-03T06:53:58.222Z,53.15
2018-11-03T06:54:32.941Z,52.93
2018-11-03T06:55:08.220Z,51.98
2018-11-03T06:55:42.766Z,51.37
2018-11-03T06:56:17.400Z,53.80
2018-11-03T06:56:51.968Z,50.15
2018-11-03T06:57:26.742Z,53.15
2018-11-03T06:58:01.524Z,54.98
2018-11-03T06:58:36.216Z,54.70
2018-11-03T06:59:10.802Z,49.53
2018-11-03T06:59:45.384Z,52.95
2018-11-03T07:00:20.001Z,56.45
2018-11-03T07:00:54.601Z,55.75
2018-11-03T07:01:29.326Z,51.45
2018-11-03T07:02:04.363Z,51.40
2018-11-03T07:02:39.021Z,53.33
2018-11-03T07:03:14.108Z,52.60
2018-11-03T07:03:49.160Z,56.50
2018-11-03T07:04:24.248Z,49.13
2018-11-03T07:04:58.982Z,54.80
2018-11-03T07:05:33.641Z,46.50
2018-11-03T07:06:08.391Z,50.67
2018-11-03T07:06:43.329Z,46.58
2018-11-03T07:07:18.222Z,46.60
2018-11-03T07:07:53.101Z,51.70
2018-11-03T07:08:28.103Z,43.73
2018-11-03T07:09:02.966Z,47.40
2018-11-03T07:09:37.602Z,45.67
2018-11-03T07:10:12.542Z,47.30
2018-11-03T07:10:47.200Z,45.12
2018-11-03T07:11:21.846Z,47.38
2018-11-03T07:11:56.530Z,44.45
2018-11-03T07:12:31.540Z,40.52
2018-11-03T07:13:06.498Z,45.50
2018-11-03T07:13:41.361Z,43.30
2018-11-03T07:14:16.064Z,45.48
2018-11-03T07:14:50.942Z,41.95
2018-11-03T07:15:25.566Z,42.80
2018-11-03T07:16:07.192Z,42.00
2018-11-03T07:16:42.061Z,41.98
2018-11-03T07:17:17.390Z,42.05
2018-11-03T07:17:52.368Z,43.40
2018-11-03T07:18:27.328Z,41.77
2018-11-03T07:19:02.328Z,42.40
2018-11-03T07:19:37.182Z,42.20
2018-11-03T07:20:13.349Z,45.60
2018-11-03T07:20:48.028Z,43.73
2018-11-03T07:21:22.872Z,41.88
2018-11-03T07:21:57.782Z,45.43
2018-11-03T07:22:32.601Z,42.00
2018-11-03T07:23:07.420Z,43.70
2018-11-03T07:23:42.076Z,40.85
2018-11-03T07:24:17.158Z,46.45
2018-11-03T07:24:52.162Z,46.08
2018-11-03T07:25:27.068Z,44.77
2018-11-03T07:26:01.749Z,44.38
2018-11-03T07:26:36.482Z,39.70
2018-11-03T07:27:11.586Z,41.28
2018-11-03T07:27:46.668Z,44.50
2018-11-03T07:28:21.582Z,45.17
2018-11-03T07:28:56.281Z,48.58
2018-11-03T07:29:31.176Z,44.90
2018-11-03T07:30:08.121Z,42.88
2018-11-03T07:30:42.880Z,41.20
2018-11-03T07:31:17.621Z,43.73
2018-11-03T07:31:52.712Z,42.73
2018-11-03T07:32:27.581Z,44.65
2018-11-03T07:33:02.371Z,44.80
2018-11-03T07:33:37.202Z,44.88
2018-11-03T07:34:11.861Z,43.25
2018-11-03T07:34:46.701Z,45.80